Time;durP1;ratioP1;P1;durP2;ratioP2;P2;SDS_P1;SDS_P2;PMS_P1;PMS_P2;Temp;Humidity;BMP_temperature;BMP_pressure;BME280_temperature;BME280_humidity;BME280_pressure;Samples;Min_cycle;Max_cycle;Signal;HPM_P1;HPM_P2
2021/11/16 00:01:24;;;;;;;47.15;20.60;;;;;;;8.50;83.29;98449.13;4990680;28;20629;-57
2021/11/16 00:03:50;;;;;;;44.05;18.75;;;;;;;8.74;85.82;98446.78;4986489;28;20049;-59
2021/11/16 00:06:15;;;;;;;43.85;19.60;;;;;;;8.75;83.28;98443.28;4989250;28;20142;-58
2021/11/16 00:08:41;;;;;;;44.05;18.35;;;;;;;8.72;85.30;98444.22;4995754;28;20040;-58
2021/11/16 00:11:06;;;;;;;44.95;19.08;;;;;;;8.71;83.96;98446.88;4988994;28;20104;-58
2021/11/16 00:13:32;;;;;;;44.88;18.80;;;;;;;8.95;86.09;98441.03;4987933;28;20021;-57
2021/11/16 00:15:58;;;;;;;47.45;19.00;;;;;;;9.17;82.95;98445.63;4989284;28;20037;-57
2021/11/16 00:18:27;;;;;;;44.45;18.75;;;;;;;9.12;83.27;98443.16;4989164;28;20040;-58
2021/11/16 00:20:53;;;;;;;31.73;13.32;;;;;;;9.65;90.09;98445.94;4989050;28;20035;-57
2021/11/16 00:23:21;;;;;;;47.78;20.38;;;;;;;9.22;80.43;98443.75;4995475;28;20033;-58
2021/11/16 00:25:51;;;;;;;34.83;15.10;;;;;;;9.38;84.67;98447.63;4986640;28;20034;-58
2021/11/16 00:28:16;;;;;;;51.83;20.90;;;;;;;9.34;81.97;98446.00;4990698;28;20018;-57
2021/11/16 00:30:41;;;;;;;43.03;19.35;;;;;;;9.02;84.00;98445.16;4985281;28;20255;-58
2021/11/16 00:33:08;;;;;;;45.35;18.95;;;;;;;9.03;84.86;98446.84;4982640;28;20148;-57
2021/11/16 00:35:37;;;;;;;40.60;18.08;;;;;;;9.15;83.79;98448.25;4985436;28;20026;-58
2021/11/16 00:38:04;;;;;;;36.97;17.10;;;;;;;9.50;82.42;98453.34;4987805;28;20030;-58
2021/11/16 00:40:30;;;;;;;48.95;20.58;;;;;;;9.51;86.42;98455.06;4985551;28;20684;-58
2021/11/16 00:42:55;;;;;;;46.58;19.48;;;;;;;9.32;82.31;98447.81;4990397;28;20069;-59
2021/11/16 00:45:20;;;;;;;44.80;18.33;;;;;;;9.15;82.09;98447.41;4986764;28;20068;-58
2021/11/16 00:47:46;;;;;;;47.28;20.33;;;;;;;8.93;83.69;98450.59;4986937;28;20474;-58
2021/11/16 00:50:15;;;;;;;44.17;18.50;;;;;;;9.09;81.68;98447.59;4985675;28;20033;-58
2021/11/16 00:52:41;;;;;;;44.08;18.08;;;;;;;8.97;84.02;98447.03;4985404;28;20121;-57
2021/11/16 00:55:06;;;;;;;49.45;20.42;;;;;;;8.96;82.16;98452.28;4984848;28;20060;-58
2021/11/16 00:57:32;;;;;;;42.97;18.13;;;;;;;8.84;82.96;98453.44;4986687;28;20644;-59
2021/11/16 00:59:57;;;;;;;48.05;19.73;;;;;;;8.83;82.01;98443.94;4994597;28;20116;-58
2021/11/16 01:02:23;;;;;;;49.08;20.92;;;;;;;8.55;84.16;98442.09;4984904;28;20034;-58
2021/11/16 01:04:50;;;;;;;35.75;16.23;;;;;;;8.95;84.93;98450.56;4985348;28;20101;-59
2021/11/16 01:07:17;;;;;;;42.85;19.00;;;;;;;8.91;84.14;98444.59;4984879;28;20046;-59
2021/11/16 01:09:43;;;;;;;44.38;19.25;;;;;;;9.02;82.85;98441.69;4988725;28;20044;-58
2021/11/16 01:12:09;;;;;;;40.10;17.88;;;;;;;9.10;81.32;98449.28;4983520;28;20221;-58
2021/11/16 01:14:34;;;;;;;50.60;21.15;;;;;;;8.89;84.83;98451.56;4990326;28;20087;-58
2021/11/16 01:17:00;;;;;;;54.00;21.20;;;;;;;8.81;84.25;98454.38;4985794;28;20038;-59
2021/11/16 01:19:26;;;;;;;48.22;18.83;;;;;;;8.97;82.60;98454.84;4984949;28;20404;-58
2021/11/16 01:21:52;;;;;;;42.58;18.67;;;;;;;8.96;84.04;98457.47;4981336;28;20298;-58
2021/11/16 01:24:17;;;;;;;41.63;16.92;;;;;;;9.09;83.36;98463.22;4985352;28;20702;-58
2021/11/16 01:26:45;;;;;;;49.80;20.83;;;;;;;8.83;81.48;98472.56;4981125;28;20447;-59
2021/11/16 01:29:11;;;;;;;53.33;20.20;;;;;;;8.91;81.38;98470.59;4984855;28;20032;-57
2021/11/16 01:31:36;;;;;;;48.33;20.52;;;;;;;8.95;85.37;98467.03;4985265;28;20038;-58
2021/11/16 01:34:05;;;;;;;34.53;16.13;;;;;;;9.07;80.85;98465.84;4991933;28;20030;-59
2021/11/16 01:36:30;;;;;;;45.78;19.55;;;;;;;8.67;83.32;98459.97;4989403;28;20022;-58
2021/11/16 01:38:57;;;;;;;51.45;21.63;;;;;;;8.55;82.40;98457.69;4984951;28;20035;-57
2021/11/16 01:41:24;;;;;;;46.30;19.73;;;;;;;8.86;82.37;98462.09;4986418;28;20042;-57
2021/11/16 01:43:51;;;;;;;42.78;18.50;;;;;;;9.10;82.67;98454.47;4985446;28;20122;-59
2021/11/16 01:46:18;;;;;;;44.63;18.40;;;;;;;9.28;81.43;98453.97;4984593;28;20127;-58
2021/11/16 01:48:48;;;;;;;41.17;17.35;;;;;;;9.61;78.27;98456.50;4985114;28;20180;-58
2021/11/16 01:51:15;;;;;;;34.95;15.38;;;;;;;9.50;82.05;98454.19;4987618;28;20054;-58
2021/11/16 01:53:41;;;;;;;39.78;16.52;;;;;;;9.34;81.30;98448.59;4986858;28;20551;-58
2021/11/16 01:56:07;;;;;;;47.97;20.50;;;;;;;9.10;80.90;98459.69;4983934;28;20033;-58
2021/11/16 01:58:32;;;;;;;41.72;19.05;;;;;;;8.68;84.24;98451.25;4983878;28;20109;-58
2021/11/16 02:00:58;;;;;;;51.22;20.25;;;;;;;8.99;82.30;98450.44;4985895;28;20046;-58
2021/11/16 02:03:24;;;;;;;45.25;19.02;;;;;;;8.77;83.50;98451.94;4989029;28;20030;-58
2021/11/16 02:05:56;;;;;;;42.15;18.05;;;;;;;8.93;80.48;98448.00;4996819;28;20166;-59
2021/11/16 02:08:23;;;;;;;45.38;18.58;;;;;;;9.03;82.00;98453.81;4988846;28;20026;-58
2021/11/16 02:10:52;;;;;;;60.90;21.15;;;;;;;9.30;81.60;98452.19;5003361;28;20367;-58
2021/11/16 02:13:20;;;;;;;44.08;19.02;;;;;;;9.29;81.45;98450.47;4989804;28;20541;-58
2021/11/16 02:15:49;;;;;;;43.40;19.20;;;;;;;8.96;82.74;98445.31;4989414;28;20100;-58
2021/11/16 02:18:15;;;;;;;42.95;19.23;;;;;;;8.63;81.10;98450.53;4987798;28;20030;-57
2021/11/16 02:20:43;;;;;;;44.65;19.23;;;;;;;8.93;83.96;98445.38;4988475;28;20119;-58
2021/11/16 02:23:09;;;;;;;48.95;21.02;;;;;;;8.82;83.31;98444.84;4989148;28;20427;-58
2021/11/16 02:25:35;;;;;;;46.25;19.88;;;;;;;9.00;82.25;98441.72;4988493;28;20693;-59
2021/11/16 02:28:02;;;;;;;49.03;19.80;;;;;;;8.82;84.05;98439.63;4990016;28;20030;-59
2021/11/16 02:30:27;;;;;;;51.22;20.02;;;;;;;8.57;84.92;98435.09;4987194;28;20057;-57
2021/11/16 02:32:53;;;;;;;50.00;21.02;;;;;;;8.48;80.22;98436.16;4988537;28;20065;-58
2021/11/16 02:35:20;;;;;;;45.83;20.00;;;;;;;8.63;82.07;98434.91;4987559;28;20029;-58
2021/11/16 02:37:46;;;;;;;44.47;19.92;;;;;;;8.76;82.03;98437.19;4985871;28;20030;-58
2021/11/16 02:40:13;;;;;;;43.03;18.92;;;;;;;8.87;82.53;98429.97;4987183;28;20017;-57
2021/11/16 02:42:39;;;;;;;43.70;19.00;;;;;;;9.19;80.20;98425.59;4988272;28;20029;-57
2021/11/16 02:45:07;;;;;;;44.15;18.38;;;;;;;8.87;80.57;98428.19;4987879;28;20030;-57
2021/11/16 02:47:33;;;;;;;51.13;20.63;;;;;;;8.63;79.97;98432.31;4988720;28;20136;-58
2021/11/16 02:49:58;;;;;;;42.40;17.67;;;;;;;8.67;86.83;98436.56;4987497;28;20054;-58
2021/11/16 02:52:23;;;;;;;41.38;18.17;;;;;;;8.99;83.84;98432.22;4987801;28;20026;-57
2021/11/16 02:54:51;;;;;;;55.25;21.50;;;;;;;8.45;81.32;98427.59;4987127;28;20022;-58
2021/11/16 02:57:16;;;;;;;33.17;14.63;;;;;;;9.04;83.07;98426.88;4988998;28;20061;-58
2021/11/16 02:59:42;;;;;;;44.55;19.08;;;;;;;9.13;79.31;98428.38;4987447;28;20100;-57
2021/11/16 03:02:10;;;;;;;45.92;19.38;;;;;;;8.98;83.29;98425.31;4985810;28;20042;-57
2021/11/16 03:04:39;;;;;;;42.78;18.85;;;;;;;8.86;83.02;98428.28;4988734;28;20030;-58
2021/11/16 03:07:05;;;;;;;30.67;14.25;;;;;;;9.31;83.88;98424.41;4986193;28;20042;-57
2021/11/16 03:09:33;;;;;;;50.30;21.05;;;;;;;8.83;78.02;98426.59;4987718;28;20037;-58
2021/11/16 03:11:59;;;;;;;43.53;17.92;;;;;;;9.22;81.99;98428.97;4985507;28;20039;-58
2021/11/16 03:14:26;;;;;;;44.47;18.02;;;;;;;9.19;85.89;98423.88;4987591;28;20207;-58
2021/11/16 03:16:52;;;;;;;48.75;19.95;;;;;;;9.15;84.06;98426.59;4987481;28;20034;-58
2021/11/16 03:19:18;;;;;;;39.97;17.88;;;;;;;8.79;83.55;98431.94;4987224;28;20030;-57
2021/11/16 03:21:53;;;;;;;39.88;16.20;;;;;;;9.04;83.41;98435.56;4986261;28;20038;-57
2021/11/16 03:24:19;;;;;;;45.55;17.73;;;;;;;9.47;81.05;98443.06;4986732;28;20077;-59
2021/11/16 03:26:44;;;;;;;40.42;16.48;;;;;;;9.20;83.46;98432.53;4987158;28;20034;-58
2021/11/16 03:29:12;;;;;;;37.63;16.00;;;;;;;9.49;80.67;98436.03;4984483;28;20121;-57
2021/11/16 03:31:40;;;;;;;43.83;17.27;;;;;;;9.25;81.09;98428.03;4985040;28;20054;-58
2021/11/16 03:34:06;;;;;;;47.95;20.58;;;;;;;9.10;81.94;98426.72;4985953;28;20861;-57
2021/11/16 03:36:32;;;;;;;51.03;21.48;;;;;;;8.59;79.99;98433.31;4986778;28;20761;-58
2021/11/16 03:39:00;;;;;;;55.65;21.63;;;;;;;8.68;84.17;98427.84;4993471;28;20030;-58
2021/11/16 03:41:26;;;;;;;50.20;21.20;;;;;;;8.38;79.89;98428.59;4987331;28;20030;-57
2021/11/16 03:43:54;;;;;;;45.58;18.88;;;;;;;8.63;82.46;98429.72;4986183;28;20490;-58
2021/11/16 03:46:19;;;;;;;49.20;21.33;;;;;;;8.47;81.03;98433.59;4985984;28;20042;-59
2021/11/16 03:48:45;;;;;;;45.28;19.85;;;;;;;8.38;83.15;98431.22;4987112;28;20026;-58
2021/11/16 03:51:10;;;;;;;40.60;17.70;;;;;;;8.78;84.97;98435.41;4988199;28;20038;-58
2021/11/16 03:53:36;;;;;;;50.85;20.42;;;;;;;9.01;79.50;98420.03;4987783;28;20084;-58
2021/11/16 03:56:03;;;;;;;33.78;14.85;;;;;;;9.21;82.32;98421.22;4987393;28;20034;-58
2021/11/16 03:58:28;;;;;;;38.00;16.20;;;;;;;9.30;82.05;98428.78;4986393;28;20035;-58
2021/11/16 04:01:04;;;;;;;53.33;21.33;;;;;;;8.96;80.77;98442.72;4987314;28;20038;-58
2021/11/16 04:03:33;;;;;;;54.03;21.45;;;;;;;8.35;80.29;98431.31;5002936;28;20030;-58
2021/11/16 04:05:59;;;;;;;43.13;18.17;;;;;;;8.72;82.55;98430.38;4985358;28;20091;-58
2021/11/16 04:08:25;;;;;;;43.22;18.73;;;;;;;8.81;81.97;98437.94;4987909;28;20041;-58
2021/11/16 04:10:51;;;;;;;47.88;19.08;;;;;;;8.97;82.92;98434.03;4987939;28;20046;-58
2021/11/16 04:13:17;;;;;;;41.65;18.05;;;;;;;8.91;80.63;98434.19;4987387;28;20077;-59
2021/11/16 04:15:45;;;;;;;49.05;20.50;;;;;;;8.86;79.84;98431.72;4985320;28;20127;-58
2021/11/16 04:18:11;;;;;;;47.42;18.92;;;;;;;8.96;82.18;98436.66;4987475;28;20048;-57
2021/11/16 04:20:40;;;;;;;49.92;20.55;;;;;;;8.76;79.98;98424.19;4986634;28;20463;-58
2021/11/16 04:23:08;;;;;;;48.80;19.35;;;;;;;8.51;83.98;98422.25;4986820;28;20699;-58
2021/11/16 04:25:38;;;;;;;43.03;18.20;;;;;;;8.70;82.28;98424.38;4986475;28;20076;-58
2021/11/16 04:28:05;;;;;;;44.83;18.35;;;;;;;8.70;83.11;98424.38;4987457;28;20025;-58
2021/11/16 04:30:31;;;;;;;40.88;16.35;;;;;;;8.83;83.16;98428.34;4983991;28;20034;-58
2021/11/16 04:32:57;;;;;;;43.90;18.13;;;;;;;8.65;80.06;98417.53;4994046;28;20036;-58
2021/11/16 04:35:24;;;;;;;48.45;21.02;;;;;;;8.22;81.16;98417.75;4985040;28;20026;-58
2021/11/16 04:37:52;;;;;;;46.13;18.75;;;;;;;8.55;81.12;98410.88;4983825;28;20022;-58
2021/11/16 04:40:26;;;;;;;54.00;20.83;;;;;;;8.43;80.40;98411.19;4984748;28;20088;-59
2021/11/16 04:42:54;;;;;;;50.03;19.90;;;;;;;8.61;80.62;98404.66;4983542;28;20563;-60
2021/11/16 04:45:23;;;;;;;51.58;20.33;;;;;;;8.70;83.10;98412.22;4986400;28;20026;-59
2021/11/16 04:47:59;;;;;;;35.35;15.27;;;;;;;8.89;79.86;98420.38;4985958;28;20029;-58
2021/11/16 05:03:47;;;;;;;45.22;19.02;;;;;;;8.39;81.19;98406.94;4985082;28;20045;-59
2021/11/16 05:06:12;;;;;;;45.97;19.45;;;;;;;8.79;87.20;98411.13;4985221;28;20030;-58
2021/11/16 05:08:40;;;;;;;46.70;19.35;;;;;;;8.35;83.17;98405.31;4991064;28;20014;-58
2021/11/16 05:11:07;;;;;;;47.78;20.73;;;;;;;8.55;83.05;98408.28;4984093;28;20037;-59
2021/11/16 05:13:33;;;;;;;49.63;19.65;;;;;;;8.67;79.24;98400.16;4987254;28;20022;-58
2021/11/16 05:15:58;;;;;;;47.97;19.58;;;;;;;8.35;79.01;98405.31;4981921;28;20468;-59
2021/11/16 05:18:24;;;;;;;54.78;22.17;;;;;;;8.04;81.19;98404.31;4986080;28;20026;-58
2021/11/16 05:20:49;;;;;;;50.08;20.08;;;;;;;8.61;81.63;98389.06;4984765;28;20539;-58
2021/11/16 05:23:17;;;;;;;51.50;20.48;;;;;;;8.16;81.29;98403.19;4984826;28;20105;-59
2021/11/16 05:25:49;;;;;;;47.65;18.98;;;;;;;8.11;83.88;98403.28;4992509;28;20048;-58
2021/11/16 05:28:14;;;;;;;46.58;19.27;;;;;;;8.23;81.88;98409.91;4985538;28;20045;-58
2021/11/16 05:30:40;;;;;;;48.10;20.85;;;;;;;8.16;80.63;98407.50;4993776;28;20182;-59
2021/11/16 05:33:05;;;;;;;40.65;17.15;;;;;;;8.24;81.64;98405.56;4986469;28;20030;-58
2021/11/16 05:35:30;;;;;;;48.67;20.77;;;;;;;8.15;82.42;98398.84;4984391;28;20555;-59
2021/11/16 05:37:56;;;;;;;37.90;15.20;;;;;;;8.62;84.83;98390.75;4987517;28;20026;-58
2021/11/16 05:40:21;;;;;;;44.53;18.00;;;;;;;8.65;81.88;98391.50;4987527;28;20125;-59
2021/11/16 05:42:46;;;;;;;35.38;15.73;;;;;;;8.91;82.78;98405.56;4997627;28;20121;-58
2021/11/16 05:45:12;;;;;;;34.38;15.93;;;;;;;8.65;81.05;98412.31;4989859;28;20033;-59
2021/11/16 05:47:39;;;;;;;41.58;16.30;;;;;;;8.84;80.73;98411.81;4987555;28;20037;-58
2021/11/16 05:50:05;;;;;;;44.88;19.42;;;;;;;8.64;83.28;98407.19;4991135;28;20024;-57
2021/11/16 05:52:32;;;;;;;48.33;20.38;;;;;;;8.16;81.87;98412.69;4988976;28;20025;-58
2021/11/16 05:54:57;;;;;;;49.42;21.10;;;;;;;8.42;80.48;98409.50;4990734;28;20693;-58
2021/11/16 05:57:23;;;;;;;42.42;16.98;;;;;;;8.77;79.68;98420.72;4988476;28;20031;-58
2021/11/16 05:59:48;;;;;;;50.97;21.23;;;;;;;8.18;80.13;98421.31;4990259;28;20036;-58
2021/11/16 06:02:14;;;;;;;56.83;20.98;;;;;;;8.43;80.47;98416.38;4984252;28;20140;-59
2021/11/16 06:04:40;;;;;;;52.50;21.55;;;;;;;7.94;79.72;98409.75;4990795;28;20037;-58
2021/11/16 06:07:06;;;;;;;44.92;19.40;;;;;;;8.52;82.30;98421.34;4998665;28;20031;-57
2021/11/16 06:09:32;;;;;;;46.67;19.35;;;;;;;8.28;81.76;98413.25;4991700;28;20745;-58
2021/11/16 06:12:00;;;;;;;53.78;21.50;;;;;;;8.22;80.49;98418.59;4991222;28;20664;-58
2021/11/16 06:14:27;;;;;;;47.85;20.30;;;;;;;8.19;79.91;98423.88;4988407;28;20026;-59
2021/11/16 06:16:53;;;;;;;54.47;20.77;;;;;;;7.84;78.99;98429.91;4989948;28;20093;-58
2021/11/16 06:19:20;;;;;;;51.13;21.45;;;;;;;7.80;78.91;98423.09;4991758;28;20057;-58
2021/11/16 06:21:46;;;;;;;52.25;21.00;;;;;;;8.41;81.49;98428.53;4991661;28;20037;-59
2021/11/16 06:24:12;;;;;;;42.95;18.95;;;;;;;8.36;81.15;98427.78;4992280;28;20077;-58
2021/11/16 06:26:37;;;;;;;39.90;15.60;;;;;;;8.43;84.63;98427.63;4994986;28;20050;-58
2021/11/16 06:29:05;;;;;;;42.05;18.45;;;;;;;8.66;83.80;98423.59;4994759;28;20839;-59
2021/11/16 06:31:31;;;;;;;49.85;21.40;;;;;;;8.08;78.92;98420.69;4988359;28;20061;-58
2021/11/16 06:34:02;;;;;;;57.28;22.55;;;;;;;7.59;79.92;98417.50;4999671;28;20064;-57
2021/11/16 06:36:33;;;;;;;57.88;22.67;;;;;;;7.32;80.79;98418.94;4991399;28;20113;-58
2021/11/16 06:39:12;;;;;;;53.50;21.80;;;;;;;7.43;79.54;98426.50;4993191;28;20395;-57
2021/11/16 06:41:39;;;;;;;55.65;22.70;;;;;;;7.38;81.68;98418.81;4989862;28;20042;-57
2021/11/16 06:44:06;;;;;;;60.17;23.23;;;;;;;6.92;82.58;98424.94;4990980;28;20034;-57
2021/11/16 06:46:32;;;;;;;59.42;23.38;;;;;;;7.13;82.16;98424.53;4990706;28;20600;-58
2021/11/16 06:48:59;;;;;;;59.97;21.98;;;;;;;7.28;81.48;98423.34;4993654;28;20058;-58
2021/11/16 06:51:24;;;;;;;52.35;21.27;;;;;;;7.54;81.98;98434.91;4989074;28;20038;-57
2021/11/16 06:53:50;;;;;;;52.83;21.58;;;;;;;7.19;81.68;98422.69;4999001;28;20045;-57
2021/11/16 06:56:15;;;;;;;63.05;23.13;;;;;;;7.79;84.76;98437.78;4990164;28;20120;-58
2021/11/16 06:58:42;;;;;;;56.67;22.17;;;;;;;7.91;80.30;98437.53;4991279;28;20911;-58
2021/11/16 07:01:07;;;;;;;52.20;21.45;;;;;;;7.58;83.69;98440.91;4991603;28;20801;-59
2021/11/16 07:03:33;;;;;;;53.55;20.60;;;;;;;7.81;81.27;98430.84;4991639;28;20620;-58
2021/11/16 07:06:01;;;;;;;50.13;21.08;;;;;;;7.94;81.54;98430.53;4991933;28;20039;-58
2021/11/16 07:08:39;;;;;;;57.00;20.80;;;;;;;7.73;83.64;98428.41;5007299;28;20042;-58
2021/11/16 07:11:06;;;;;;;53.63;21.13;;;;;;;7.84;82.85;98428.16;4990896;28;20030;-59
2021/11/16 07:13:33;;;;;;;50.92;20.08;;;;;;;8.19;79.46;98434.25;4992423;28;20121;-58
2021/11/16 07:15:58;;;;;;;49.83;20.48;;;;;;;8.19;83.24;98439.47;4992192;28;20049;-58
2021/11/16 07:18:24;;;;;;;48.38;19.17;;;;;;;8.19;81.11;98439.47;4992145;28;20029;-57
2021/11/16 07:20:59;;;;;;;51.17;20.33;;;;;;;8.23;82.46;98440.25;4990600;28;20038;-58
2021/11/16 07:23:25;;;;;;;45.78;19.10;;;;;;;8.35;81.12;98446.91;4990549;28;20026;-59
2021/11/16 07:25:50;;;;;;;45.65;19.33;;;;;;;8.78;80.16;98454.47;4991629;28;20030;-57
2021/11/16 07:28:16;;;;;;;48.10;20.25;;;;;;;8.46;81.73;98447.50;4993541;28;20084;-58
2021/11/16 07:30:41;;;;;;;43.67;20.33;;;;;;;8.44;80.35;98454.50;4988316;28;20504;-58
2021/11/16 07:33:10;;;;;;;47.63;19.00;;;;;;;8.94;82.95;98454.06;4989316;28;20029;-58
2021/11/16 07:35:38;;;;;;;48.05;19.77;;;;;;;8.55;81.73;98443.84;4988350;28;20046;-57
2021/11/16 07:38:06;;;;;;;45.50;19.15;;;;;;;8.58;79.52;98441.97;4989762;28;20511;-58
2021/11/16 07:40:33;;;;;;;47.08;20.23;;;;;;;8.35;77.49;98449.50;4990471;28;20054;-58
2021/11/16 07:43:11;;;;;;;48.90;19.63;;;;;;;8.95;78.88;98445.34;4990765;28;20594;-58
2021/11/16 07:45:40;;;;;;;39.05;17.63;;;;;;;8.78;79.02;98448.41;4978526;28;20045;-58
2021/11/16 07:48:14;;;;;;;44.25;18.88;;;;;;;8.83;79.65;98447.41;4990551;28;20080;-58
2021/11/16 07:50:52;;;;;;;49.03;19.55;;;;;;;9.18;77.75;98447.34;4990321;28;20041;-57
2021/11/16 07:53:34;;;;;;;44.47;19.27;;;;;;;8.54;76.96;98445.56;5005068;28;20522;-58
2021/11/16 07:56:12;;;;;;;45.70;20.25;;;;;;;9.00;77.05;98449.53;4990614;28;20780;-58
2021/11/16 07:58:42;;;;;;;48.20;19.40;;;;;;;8.98;74.84;98456.53;4991860;28;20037;-58
2021/11/16 08:01:15;;;;;;;45.33;20.23;;;;;;;8.84;79.45;98454.31;4987400;28;20092;-57
2021/11/16 08:03:49;;;;;;;43.70;19.23;;;;;;;8.57;79.42;98450.69;4990196;28;20030;-57
2021/11/16 08:06:33;;;;;;;45.40;19.40;;;;;;;8.96;79.12;98454.88;4988164;28;20038;-57
2021/11/16 08:09:11;;;;;;;38.00;17.90;;;;;;;9.30;76.76;98452.19;4989397;28;20026;-59
2021/11/16 08:11:44;;;;;;;38.95;16.88;;;;;;;9.37;79.43;98450.25;4976033;28;20041;-58
2021/11/16 08:14:13;;;;;;;35.65;16.30;;;;;;;9.78;78.36;98443.81;4989371;28;20034;-57
2021/11/16 08:16:57;;;;;;;46.63;19.75;;;;;;;9.17;76.47;98450.81;4989061;28;20037;-58
2021/11/16 08:19:28;;;;;;;44.22;18.40;;;;;;;9.18;75.05;98448.19;4989589;28;20032;-57
2021/11/16 08:21:58;;;;;;;42.42;18.45;;;;;;;9.04;79.02;98442.50;4989366;28;20042;-57
2021/11/16 08:24:29;;;;;;;39.15;18.48;;;;;;;9.75;78.13;98454.31;4992868;28;20025;-57
2021/11/16 08:26:56;;;;;;;40.13;18.70;;;;;;;9.06;76.47;98451.09;5003330;28;20502;-59
2021/11/16 08:29:33;;;;;;;42.95;18.42;;;;;;;9.57;75.71;98450.53;4988882;28;20034;-57
2021/11/16 08:32:07;;;;;;;43.50;18.15;;;;;;;9.22;77.68;98443.75;4987340;28;20049;-57
2021/11/16 08:34:36;;;;;;;41.03;17.65;;;;;;;9.75;78.56;98443.06;4989826;28;20091;-58
2021/11/16 08:37:06;;;;;;;39.55;18.58;;;;;;;9.62;76.43;98450.41;4988427;28;20030;-58
2021/11/16 08:39:54;;;;;;;40.17;17.92;;;;;;;9.78;74.06;98449.03;4989465;28;20037;-58
2021/11/16 08:42:37;;;;;;;40.55;18.10;;;;;;;9.52;77.81;98452.44;4990087;28;20792;-58
2021/11/16 08:45:18;;;;;;;43.55;18.27;;;;;;;10.28;74.31;98458.75;5005569;28;20027;-58
2021/11/16 08:47:55;;;;;;;34.75;17.00;;;;;;;10.41;74.07;98448.81;4990019;28;20084;-58
2021/11/16 08:50:30;;;;;;;43.28;18.70;;;;;;;9.79;71.61;98453.31;5000428;28;20254;-58
2021/11/16 08:53:02;;;;;;;37.92;17.95;;;;;;;10.05;75.16;98451.66;4987617;28;20502;-58
2021/11/16 08:55:31;;;;;;;34.20;16.80;;;;;;;10.04;72.73;98449.97;4988436;28;20042;-57
2021/11/16 08:57:59;;;;;;;40.97;18.17;;;;;;;10.08;73.41;98446.38;4989047;28;20898;-57
2021/11/16 09:00:33;;;;;;;42.58;18.77;;;;;;;9.39;72.85;98453.66;4989622;28;20575;-58
2021/11/16 09:03:26;;;;;;;40.05;17.83;;;;;;;10.23;75.36;98455.44;4989209;28;20561;-58
2021/11/16 09:05:53;;;;;;;35.90;17.40;;;;;;;10.11;76.54;98456.72;4992081;28;20081;-59
2021/11/16 09:08:31;;;;;;;41.45;18.35;;;;;;;9.68;71.32;98462.38;4990431;28;20026;-59
2021/11/16 09:10:58;;;;;;;35.50;17.08;;;;;;;9.81;75.25;98459.38;4990022;28;20053;-58
2021/11/16 09:13:25;;;;;;;36.00;17.40;;;;;;;10.22;76.26;98459.81;4989443;28;20610;-58
2021/11/16 09:15:54;;;;;;;37.38;17.83;;;;;;;9.98;72.03;98455.38;4991805;28;20451;-58
2021/11/16 09:18:21;;;;;;;38.67;18.58;;;;;;;10.47;69.97;98459.03;4993761;28;20152;-58
2021/11/16 09:21:04;;;;;;;30.92;15.65;;;;;;;10.22;73.29;98459.81;4991864;28;20073;-58
2021/11/16 09:23:33;;;;;;;29.75;14.65;;;;;;;10.32;74.44;98454.34;4991245;28;20424;-59
2021/11/16 09:26:18;;;;;;;35.65;16.67;;;;;;;10.63;72.25;98453.31;4992465;28;20113;-59
2021/11/16 09:29:06;;;;;;;35.25;16.88;;;;;;;10.47;73.90;98458.19;4989780;28;20335;-59
2021/11/16 09:31:42;;;;;;;40.65;19.52;;;;;;;10.46;68.88;98462.56;4989445;28;20042;-58
2021/11/16 09:34:22;;;;;;;35.22;17.10;;;;;;;10.65;75.37;98456.72;4991445;28;20041;-60
2021/11/16 09:36:52;;;;;;;36.50;17.33;;;;;;;10.02;70.88;98463.06;4991522;28;20092;-59
2021/11/16 09:39:21;;;;;;;31.42;15.13;;;;;;;10.94;72.06;98459.19;4992049;28;20034;-58
2021/11/16 09:41:55;;;;;;;34.92;16.85;;;;;;;10.79;69.96;98459.72;4989005;28;20042;-58
2021/11/16 09:44:24;;;;;;;37.45;17.60;;;;;;;10.10;72.40;98454.13;4993378;28;20071;-58
2021/11/16 09:46:57;;;;;;;36.35;17.35;;;;;;;10.72;69.55;98447.78;4999793;28;20052;-58
2021/11/16 09:49:41;;;;;;;37.08;18.10;;;;;;;10.42;67.04;98458.31;4992947;28;20034;-58
2021/11/16 09:52:09;;;;;;;33.08;16.02;;;;;;;10.50;69.61;98458.09;4988404;28;20041;-57
2021/11/16 09:54:50;;;;;;;34.40;16.35;;;;;;;10.85;71.89;98448.22;4992654;28;20080;-57
2021/11/16 09:57:17;;;;;;;36.47;16.60;;;;;;;10.10;70.31;98449.78;4990759;28;20407;-59
2021/11/16 09:59:45;;;;;;;36.10;18.10;;;;;;;9.89;69.98;98447.84;4998435;28;20033;-56
2021/11/16 10:02:24;;;;;;;36.97;17.80;;;;;;;10.50;72.25;98453.72;4989855;28;20045;-58
2021/11/16 10:04:52;;;;;;;37.53;17.40;;;;;;;9.96;73.04;98451.97;4993514;28;20030;-58
2021/11/16 10:07:20;;;;;;;37.25;17.60;;;;;;;10.00;69.12;98448.38;4991557;28;20038;-57
2021/11/16 10:09:47;;;;;;;32.67;16.13;;;;;;;10.82;69.04;98446.53;4991712;28;20773;-57
2021/11/16 10:12:13;;;;;;;31.45;15.20;;;;;;;11.04;68.56;98444.03;4991091;28;20042;-58
2021/11/16 10:14:38;;;;;;;30.13;15.45;;;;;;;10.86;72.25;98429.88;4998245;28;20875;-58
2021/11/16 10:17:04;;;;;;;29.02;13.93;;;;;;;11.00;70.55;98432.84;4991348;28;20030;-58
2021/11/16 10:19:30;;;;;;;30.63;14.88;;;;;;;11.35;71.27;98430.72;4988880;28;20403;-58
2021/11/16 10:21:55;;;;;;;27.80;14.68;;;;;;;10.68;70.04;98431.38;4990639;28;20046;-58
2021/11/16 10:24:32;;;;;;;28.15;14.73;;;;;;;11.21;73.25;98427.75;4993788;28;20061;-58
2021/11/16 10:27:00;;;;;;;29.65;15.85;;;;;;;10.86;66.77;98435.09;4994842;28;20574;-58
2021/11/16 10:29:25;;;;;;;33.00;15.75;;;;;;;9.83;69.61;98428.91;4994245;28;20030;-57
2021/11/16 10:31:51;;;;;;;27.73;14.93;;;;;;;10.40;69.18;98431.44;5000217;28;20093;-58
2021/11/16 10:34:16;;;;;;;34.75;16.17;;;;;;;10.74;66.88;98430.31;4999631;28;20038;-58
2021/11/16 10:36:42;;;;;;;33.70;16.17;;;;;;;10.43;67.84;98441.78;4993382;28;20038;-57
2021/11/16 10:39:08;;;;;;;30.00;14.18;;;;;;;10.67;71.89;98434.03;4993581;28;20042;-58
2021/11/16 10:41:36;;;;;;;28.95;15.02;;;;;;;10.89;70.70;98429.78;4991415;28;20039;-58
2021/11/16 10:44:08;;;;;;;30.15;14.98;;;;;;;10.92;72.28;98426.22;4996415;28;20026;-58
2021/11/16 10:46:41;;;;;;;25.80;13.60;;;;;;;11.40;71.95;98427.09;5000683;28;20125;-57
2021/11/16 10:49:19;;;;;;;28.23;14.18;;;;;;;10.91;72.09;98427.94;4994785;28;20033;-58
2021/11/16 10:51:47;;;;;;;30.00;14.63;;;;;;;10.92;66.96;98416.63;4992112;28;20038;-58
2021/11/16 10:54:13;;;;;;;29.40;14.90;;;;;;;10.58;69.12;98423.00;4994858;28;20038;-58
2021/11/16 10:56:41;;;;;;;31.25;14.43;;;;;;;11.02;68.49;98418.91;4991121;28;20088;-58
2021/11/16 10:59:13;;;;;;;30.55;15.57;;;;;;;10.90;67.51;98421.03;4992107;28;20623;-58
2021/11/16 11:01:54;;;;;;;28.38;15.15;;;;;;;10.69;68.28;98422.63;4992287;28;20235;-57
2021/11/16 11:04:23;;;;;;;30.40;14.98;;;;;;;10.29;68.66;98412.69;4993682;28;20036;-58
2021/11/16 11:06:52;;;;;;;29.38;13.70;;;;;;;10.51;70.23;98411.09;4991611;28;20133;-58
2021/11/16 11:09:22;;;;;;;30.27;14.70;;;;;;;10.77;67.67;98410.19;4997959;28;20605;-59
2021/11/16 11:11:50;;;;;;;31.33;16.00;;;;;;;10.96;68.04;98405.16;4991990;28;20599;-58
2021/11/16 11:14:18;;;;;;;27.85;14.48;;;;;;;10.69;69.96;98411.34;4993040;28;20808;-58
2021/11/16 11:17:09;;;;;;;30.60;15.80;;;;;;;10.58;67.36;98409.97;4991739;28;20057;-58
2021/11/16 11:19:43;;;;;;;33.03;15.43;;;;;;;10.89;69.73;98408.91;4994269;28;20034;-58
2021/11/16 11:24:46;;;;;;;32.08;16.08;;;;;;;10.59;68.06;98398.63;4991688;28;20116;-58
2021/11/16 11:29:46;;;;;;;33.13;15.70;;;;;;;11.00;71.73;98390.25;4994589;28;20023;-58
2021/11/16 11:32:24;;;;;;;33.50;16.15;;;;;;;10.28;68.19;98397.97;4989958;28;20034;-57
2021/11/16 11:35:02;;;;;;;29.55;14.55;;;;;;;10.90;69.10;98379.28;4992753;28;20116;-58
2021/11/16 11:37:49;;;;;;;25.45;13.27;;;;;;;11.36;70.04;98380.19;4987970;28;20648;-58
2021/11/16 11:40:27;;;;;;;25.58;13.77;;;;;;;11.14;68.06;98390.59;4991180;28;20033;-58
2021/11/16 11:42:57;;;;;;;28.52;14.52;;;;;;;11.25;66.92;98379.75;4994277;28;20028;-58
2021/11/16 11:45:38;;;;;;;26.98;13.90;;;;;;;11.01;68.17;98384.13;4991484;28;20030;-58
2021/11/16 11:48:04;;;;;;;24.20;12.60;;;;;;;11.37;72.68;98379.25;4993430;28;20027;-58
2021/11/16 11:50:37;;;;;;;27.92;14.05;;;;;;;10.79;69.34;98381.44;4992800;28;20431;-58